createdAt,value
2019-03-29T06:14:41.814Z,876.00
2019-03-29T06:15:41.769Z,888.00
2019-03-29T06:16:41.766Z,900.00
2019-03-29T06:17:48.370Z,916.00
2019-03-29T06:18:42.811Z,932.00
2019-03-29T06:19:41.725Z,940.00
2019-03-29T06:20:41.803Z,952.00
2019-03-29T06:21:41.708Z,964.00
2019-03-29T06:22:41.853Z,976.00
2019-03-29T06:23:41.686Z,988.00
2019-03-29T06:24:41.729Z,1000.00
2019-03-29T06:25:41.668Z,1016.00
2019-03-29T06:26:41.753Z,1024.00
2019-03-29T06:27:41.677Z,1036.00
2019-03-29T06:28:41.660Z,1048.00
2019-03-29T06:29:41.630Z,1060.00
2019-03-29T06:30:41.681Z,1068.00
2019-03-29T06:31:41.607Z,1080.00
2019-03-29T06:32:41.683Z,1096.00
2019-03-29T06:33:44.380Z,1104.00
2019-03-29T06:34:41.599Z,1116.00
2019-03-29T06:35:41.555Z,1128.00
2019-03-29T06:36:41.615Z,1140.00
2019-03-29T06:37:41.539Z,1152.00
2019-03-29T06:38:41.651Z,1164.00
2019-03-29T06:39:41.504Z,1176.00
2019-03-29T06:40:41.530Z,1184.00
2019-03-29T06:41:41.485Z,1200.00
2019-03-29T06:42:41.505Z,1208.00
2019-03-29T06:43:41.494Z,1212.00
2019-03-29T06:44:44.205Z,1224.00
2019-03-29T06:45:47.977Z,1236.00
2019-03-29T06:46:42.501Z,1244.00
2019-03-29T06:47:41.432Z,1260.00
2019-03-29T06:48:41.521Z,1268.00
2019-03-29T06:49:41.427Z,1280.00
2019-03-29T06:50:41.528Z,1288.00
2019-03-29T06:51:41.379Z,1296.00
2019-03-29T06:52:41.426Z,1308.00
2019-03-29T06:53:41.445Z,1324.00
2019-03-29T06:54:41.425Z,1332.00
2019-03-29T06:55:41.348Z,1348.00
2019-03-29T06:56:41.449Z,1352.00
2019-03-29T06:57:41.320Z,1364.00
2019-03-29T06:58:41.390Z,1372.00
2019-03-29T06:59:41.306Z,1380.00
2019-03-29T07:00:41.364Z,1392.00
2019-03-29T07:01:41.279Z,1404.00
2019-03-29T07:02:41.384Z,1416.00
2019-03-29T07:03:41.289Z,1424.00
2019-03-29T07:04:41.289Z,1436.00
2019-03-29T07:05:41.215Z,1448.00
2019-03-29T07:06:41.323Z,1460.00
2019-03-29T07:07:44.427Z,1468.00
2019-03-29T07:08:41.251Z,1484.00
2019-03-29T07:09:41.278Z,1492.00
2019-03-29T07:10:41.233Z,1500.00
2019-03-29T07:11:41.155Z,1516.00
2019-03-29T07:12:41.273Z,1524.00
2019-03-29T07:13:41.203Z,1532.00
2019-03-29T07:14:41.192Z,1540.00
2019-03-29T07:15:41.111Z,1552.00
2019-03-29T07:16:41.167Z,1564.00
2019-03-29T07:17:41.084Z,1568.00
2019-03-29T07:18:41.190Z,1580.00
2019-03-29T07:19:41.105Z,1588.00
2019-03-29T07:20:41.107Z,1604.00
2019-03-29T07:21:41.073Z,1608.00
2019-03-29T07:22:41.111Z,1620.00
2019-03-29T07:23:41.022Z,1628.00
2019-03-29T07:24:41.154Z,1640.00
2019-03-29T07:25:41.017Z,1652.00
2019-03-29T07:26:41.001Z,1656.00
2019-03-29T07:27:45.853Z,1668.00
2019-03-29T07:28:41.967Z,1680.00
2019-03-29T07:29:41.019Z,1692.00
2019-03-29T07:30:40.963Z,1696.00
2019-03-29T07:31:40.960Z,1708.00
2019-03-29T07:32:40.938Z,1716.00
2019-03-29T07:33:40.927Z,1724.00
2019-03-29T07:34:40.901Z,1732.00
2019-03-29T07:35:40.955Z,1740.00
2019-03-29T07:36:40.881Z,1752.00
2019-03-29T07:37:40.876Z,1760.00
2019-03-29T07:38:40.854Z,1768.00
2019-03-29T07:39:40.883Z,1780.00
2019-03-29T07:40:40.889Z,1792.00
2019-03-29T07:41:40.855Z,1792.00
2019-03-29T07:42:40.811Z,1804.00
2019-03-29T07:43:40.823Z,1816.00
2019-03-29T07:44:40.792Z,1824.00
2019-03-29T07:45:40.816Z,1832.00
2019-03-29T07:46:40.776Z,1844.00
2019-03-29T07:47:40.761Z,1844.00
2019-03-29T07:48:40.745Z,1856.00
2019-03-29T07:49:40.747Z,1868.00
2019-03-29T07:50:40.758Z,1876.00
2019-03-29T07:51:40.726Z,1884.00
2019-03-29T07:52:40.711Z,1892.00
2019-03-29T07:53:40.708Z,1904.00
2019-03-29T07:54:40.683Z,1912.00
2019-03-29T07:55:40.693Z,1920.00
2019-03-29T07:56:40.667Z,1928.00
2019-03-29T07:57:40.656Z,1936.00
2019-03-29T07:58:40.632Z,1944.00
2019-03-29T07:59:40.643Z,1956.00
2019-03-29T08:00:40.664Z,1964.00
2019-03-29T08:01:40.633Z,1968.00
2019-03-29T08:02:40.593Z,1976.00
2019-03-29T08:03:40.577Z,1988.00
2019-03-29T08:04:40.571Z,2000.00
2019-03-29T08:05:40.589Z,2008.00
2019-03-29T08:06:40.585Z,2020.00
2019-03-29T08:07:40.535Z,2024.00
2019-03-29T08:08:40.551Z,2032.00
2019-03-29T08:09:40.519Z,2036.00
2019-03-29T08:10:40.501Z,2040.00
2019-03-29T08:11:46.548Z,2044.00
2019-03-29T08:12:41.473Z,2056.00
2019-03-29T08:13:40.492Z,2068.00
2019-03-29T08:14:40.469Z,2076.00
2019-03-29T08:15:40.453Z,2080.00
2019-03-29T08:16:40.455Z,2088.00
2019-03-29T08:17:40.436Z,2096.00
2019-03-29T08:18:40.411Z,2104.00
2019-03-29T08:19:40.408Z,2116.00
2019-03-29T08:20:43.958Z,2132.00
2019-03-29T08:21:40.415Z,2132.00
2019-03-29T08:22:40.367Z,2140.00
2019-03-29T08:23:40.362Z,2156.00
2019-03-29T08:24:40.346Z,2160.00
2019-03-29T08:25:40.363Z,2164.00
2019-03-29T08:26:40.356Z,2172.00
2019-03-29T08:28:41.349Z,2188.00
2019-03-29T08:29:40.293Z,2188.00
2019-03-29T08:30:40.281Z,2196.00
2019-03-29T08:31:40.332Z,2204.00
2019-03-29T08:32:40.254Z,2220.00
2019-03-29T08:33:40.253Z,2224.00
2019-03-29T08:34:40.244Z,2232.00
2019-03-29T08:35:40.226Z,2240.00
2019-03-29T08:36:40.210Z,2248.00
2019-03-29T08:37:40.230Z,2256.00
2019-03-29T08:38:40.191Z,2264.00
2019-03-29T08:40:41.219Z,2288.00
2019-03-29T08:41:40.158Z,2292.00
2019-03-29T08:42:40.174Z,2300.00
2019-03-29T08:43:40.137Z,2308.00
2019-03-29T08:44:40.150Z,2312.00
2019-03-29T08:45:40.166Z,2320.00
2019-03-29T08:46:40.127Z,2328.00
2019-03-29T08:47:40.122Z,2344.00
2019-03-29T08:48:40.085Z,2344.00
2019-03-29T08:49:40.102Z,2360.00
2019-03-29T08:50:40.062Z,2356.00
2019-03-29T08:51:41.575Z,2368.00
2019-03-29T08:52:40.063Z,2376.00
2019-03-29T08:54:41.063Z,2384.00
2019-03-29T08:55:46.100Z,2388.00
2019-03-29T08:56:40.984Z,2396.00
2019-03-29T08:57:40.063Z,2404.00
2019-03-29T08:58:39.965Z,2416.00
2019-03-29T08:59:40.067Z,2424.00
2019-03-29T09:00:39.985Z,2432.00
2019-03-29T09:01:40.092Z,2432.00
2019-03-29T09:02:39.927Z,2432.00
2019-03-29T09:03:40.005Z,2444.00
2019-03-29T09:04:39.913Z,2452.00
2019-03-29T09:05:39.983Z,2452.00
2019-03-29T09:06:52.419Z,2452.00
2019-03-29T09:07:44.866Z,2468.00
2019-03-29T09:08:39.938Z,2472.00
2019-03-29T09:09:39.854Z,2476.00
2019-03-29T09:11:40.882Z,2484.00
2019-03-29T09:12:39.981Z,2504.00
2019-03-29T09:13:39.855Z,2504.00
2019-03-29T09:14:39.842Z,2508.00
2019-03-29T09:15:39.780Z,2512.00
2019-03-29T09:16:39.869Z,2520.00
2019-03-29T09:17:39.755Z,2524.00
2019-03-29T09:18:39.903Z,2532.00
2019-03-29T09:19:39.769Z,2544.00
2019-03-29T09:20:39.781Z,2548.00
2019-03-29T09:21:39.715Z,2544.00
2019-03-29T09:22:39.791Z,2552.00
2019-03-29T09:23:39.726Z,2564.00
2019-03-29T09:24:39.734Z,2568.00
2019-03-29T09:25:40.599Z,2576.00
2019-03-29T09:26:39.764Z,2580.00
2019-03-29T09:27:39.650Z,2588.00
2019-03-29T09:28:39.789Z,2592.00
2019-03-29T09:29:39.638Z,2592.00
2019-03-29T09:30:39.644Z,2600.00
2019-03-29T09:31:39.616Z,2600.00
2019-03-29T09:32:39.664Z,2608.00
2019-03-29T09:33:39.616Z,2620.00
2019-03-29T09:34:39.707Z,2616.00
2019-03-29T09:35:42.584Z,2620.00
2019-03-29T09:36:39.599Z,2624.00
2019-03-29T09:37:39.553Z,2628.00
2019-03-29T09:38:39.630Z,2632.00
2019-03-29T09:39:39.528Z,2640.00
2019-03-29T09:40:39.671Z,2648.00
2019-03-29T09:41:39.496Z,2656.00
2019-03-29T09:42:39.627Z,2664.00
2019-03-29T09:43:39.509Z,2668.00
2019-03-29T09:44:39.574Z,2672.00
2019-03-29T09:45:41.127Z,2668.00
2019-03-29T09:46:39.469Z,2672.00
2019-03-29T09:47:40.677Z,2676.00
2019-03-29T09:48:39.431Z,2680.00
2019-03-29T09:49:39.456Z,2688.00
2019-03-29T09:50:39.413Z,2692.00
2019-03-29T09:51:39.431Z,2696.00
2019-03-29T09:52:39.386Z,2696.00
2019-03-29T09:53:41.179Z,2696.00
2019-03-29T09:54:39.396Z,2700.00
2019-03-29T09:55:39.334Z,2708.00
2019-03-29T09:56:39.665Z,2728.00
2019-03-29T09:57:39.329Z,2728.00
2019-03-29T09:58:39.318Z,2700.00
2019-03-29T09:59:39.294Z,2712.00
2019-03-29T10:00:39.313Z,2716.00
2019-03-29T10:01:39.273Z,2724.00
2019-03-29T10:02:39.261Z,2748.00
2019-03-29T10:03:39.257Z,2756.00
2019-03-29T10:05:40.303Z,2748.00
2019-03-29T10:07:40.260Z,2772.00
2019-03-29T10:08:39.203Z,2784.00
2019-03-29T10:09:39.220Z,2780.00
2019-03-29T10:10:39.204Z,2792.00
2019-03-29T10:11:39.168Z,2800.00
2019-03-29T10:12:43.733Z,2796.00
2019-03-29T10:13:39.148Z,2780.00
2019-03-29T10:14:39.150Z,2788.00
2019-03-29T10:15:39.155Z,2796.00
2019-03-29T10:16:39.122Z,2800.00
2019-03-29T10:17:39.098Z,2816.00
2019-03-29T10:18:39.102Z,2808.00
2019-03-29T10:19:39.087Z,2820.00
2019-03-29T10:20:39.114Z,2816.00
2019-03-29T10:21:39.080Z,2792.00
2019-03-29T10:22:39.070Z,2800.00
2019-03-29T10:23:39.049Z,2832.00
2019-03-29T10:24:39.137Z,2828.00
2019-03-29T10:25:39.033Z,2844.00
2019-03-29T10:26:39.007Z,2816.00
2019-03-29T10:27:38.999Z,2844.00
2019-03-29T10:28:38.990Z,2856.00
2019-03-29T10:29:38.967Z,2848.00
2019-03-29T10:30:39.041Z,2840.00
2019-03-29T10:31:38.942Z,2844.00
2019-03-29T10:32:38.934Z,2852.00
2019-03-29T10:33:38.914Z,2860.00
2019-03-29T10:34:38.919Z,2848.00
2019-03-29T10:35:50.659Z,2852.00
2019-03-29T10:36:39.912Z,2860.00
2019-03-29T10:37:38.880Z,2864.00
2019-03-29T10:38:38.860Z,2872.00
2019-03-29T10:39:38.891Z,2872.00
2019-03-29T10:40:38.910Z,2872.00
2019-03-29T10:41:38.869Z,2836.00
2019-03-29T10:42:40.343Z,2860.00
2019-03-29T10:43:38.810Z,2856.00
2019-03-29T10:44:38.791Z,2840.00
2019-03-29T10:45:40.672Z,2868.00
2019-03-29T10:46:38.803Z,2884.00
2019-03-29T10:47:43.751Z,2888.00
2019-03-29T10:48:39.760Z,2888.00
2019-03-29T10:49:38.769Z,2896.00
2019-03-29T10:50:38.727Z,2900.00
2019-03-29T10:51:38.759Z,2904.00
2019-03-29T10:52:38.732Z,2896.00
2019-03-29T10:53:38.703Z,2900.00
2019-03-29T10:54:38.684Z,2900.00
2019-03-29T10:55:38.697Z,2892.00
2019-03-29T10:56:38.694Z,2884.00
2019-03-29T10:57:38.657Z,2876.00
2019-03-29T10:58:38.638Z,2868.00
2019-03-29T10:59:38.634Z,2872.00
2019-03-29T11:00:38.645Z,2876.00
2019-03-29T11:01:38.637Z,2868.00
2019-03-29T11:02:38.594Z,2880.00
2019-03-29T11:03:38.583Z,2896.00
2019-03-29T11:04:38.601Z,2900.00
2019-03-29T11:05:38.562Z,2900.00
2019-03-29T11:06:38.569Z,2896.00
2019-03-29T11:07:38.543Z,2888.00
2019-03-29T11:08:38.523Z,2900.00
2019-03-29T11:09:38.541Z,2896.00
2019-03-29T11:10:38.528Z,2904.00
2019-03-29T11:11:38.584Z,2900.00
2019-03-29T11:12:38.482Z,2884.00
2019-03-29T11:13:40.931Z,2896.00
2019-03-29T11:14:38.463Z,2892.00
2019-03-29T11:15:38.464Z,2904.00
2019-03-29T11:16:38.475Z,2904.00
2019-03-29T11:17:38.476Z,2900.00
2019-03-29T11:18:38.416Z,2916.00
2019-03-29T11:19:38.423Z,2920.00
2019-03-29T11:20:38.394Z,2924.00
2019-03-29T11:21:38.388Z,2920.00
2019-03-29T11:22:38.403Z,2924.00
2019-03-29T11:23:38.371Z,2936.00
2019-03-29T11:24:38.355Z,2928.00
2019-03-29T11:25:38.343Z,2928.00
2019-03-29T11:26:38.350Z,2936.00
2019-03-29T11:27:38.349Z,2936.00
2019-03-29T11:28:38.309Z,2932.00
2019-03-29T11:29:38.320Z,2944.00
2019-03-29T11:30:42.650Z,2940.00
2019-03-29T11:31:38.277Z,2940.00
2019-03-29T11:32:38.294Z,2928.00
2019-03-29T11:33:38.274Z,2924.00
2019-03-29T11:34:38.252Z,2936.00
2019-03-29T11:35:38.249Z,2948.00
2019-03-29T11:36:38.220Z,2936.00
2019-03-29T11:37:40.357Z,2940.00
2019-03-29T11:38:38.219Z,2936.00
2019-03-29T11:39:40.350Z,2936.00
2019-03-29T11:40:38.193Z,2944.00
2019-03-29T11:41:40.354Z,2940.00
2019-03-29T11:42:38.151Z,2944.00
2019-03-29T11:43:40.506Z,2952.00
2019-03-29T11:44:38.129Z,2924.00
2019-03-29T11:45:40.489Z,2916.00
2019-03-29T11:46:38.103Z,2928.00
2019-03-29T11:48:39.179Z,2944.00
2019-03-29T11:50:39.119Z,2952.00
2019-03-29T11:52:39.103Z,2948.00
2019-03-29T11:53:40.783Z,2932.00
2019-03-29T11:54:38.029Z,2928.00
2019-03-29T11:56:39.052Z,2944.00
2019-03-29T11:58:39.048Z,2948.00
2019-03-29T12:00:39.009Z,2944.00
2019-03-29T12:02:39.005Z,2932.00
2019-03-29T12:03:41.257Z,2928.00
2019-03-29T12:04:37.912Z,2932.00
2019-03-29T12:06:38.962Z,2920.00
2019-03-29T12:09:41.564Z,2916.00
2019-03-29T12:13:45.949Z,2892.00
2019-03-29T12:14:44.907Z,2888.00
2019-03-29T12:15:44.979Z,2896.00
2019-03-29T12:16:44.918Z,2892.00
2019-03-29T12:19:25.957Z,2884.00
2019-03-29T12:20:25.986Z,2876.00
2019-03-29T12:21:25.957Z,2848.00
2019-03-29T12:22:25.845Z,2848.00
2019-03-29T12:23:25.945Z,2840.00
2019-03-29T12:24:25.870Z,2864.00
2019-03-29T12:25:25.924Z,2880.00
2019-03-29T12:26:25.813Z,2872.00
2019-03-29T12:27:25.828Z,2864.00
2019-03-29T12:28:25.784Z,2864.00
2019-03-29T12:29:25.887Z,2860.00
2019-03-29T12:30:31.841Z,2868.00
2019-03-29T12:31:26.779Z,2872.00
2019-03-29T12:32:25.728Z,2852.00
2019-03-29T12:33:25.770Z,2848.00
2019-03-29T12:34:25.740Z,2856.00
2019-03-29T12:35:25.829Z,2872.00
2019-03-29T12:36:25.685Z,2872.00
2019-03-29T12:37:25.821Z,2868.00
2019-03-29T12:38:25.661Z,2864.00
2019-03-29T12:39:25.742Z,2868.00
2019-03-29T12:40:25.641Z,2864.00
2019-03-29T12:41:25.719Z,2860.00
2019-03-29T12:42:25.617Z,2864.00
2019-03-29T12:43:25.741Z,2864.00
2019-03-29T12:44:25.632Z,2872.00
2019-03-29T12:45:25.649Z,2860.00
2019-03-29T12:46:25.566Z,2860.00
2019-03-29T12:47:25.670Z,2856.00
2019-03-29T12:48:25.564Z,2852.00
2019-03-29T12:49:25.569Z,2856.00
2019-03-29T12:50:25.558Z,2856.00
2019-03-29T12:51:25.585Z,2856.00
2019-03-29T12:52:25.506Z,2856.00
2019-03-29T12:53:25.601Z,2848.00
2019-03-29T12:54:25.507Z,2840.00
2019-03-29T12:55:25.551Z,2832.00
2019-03-29T12:56:25.460Z,2816.00
2019-03-29T12:57:25.519Z,2820.00
2019-03-29T12:58:25.445Z,2812.00
2019-03-29T12:59:25.540Z,2808.00
2019-03-29T13:00:25.442Z,2792.00
2019-03-29T13:01:38.541Z,2792.00
2019-03-29T13:02:26.387Z,2800.00
2019-03-29T13:03:25.467Z,2796.00
2019-03-29T13:04:25.366Z,2796.00
2019-03-29T13:05:25.406Z,2796.00
2019-03-29T13:06:25.353Z,2792.00
2019-03-29T13:07:25.511Z,2792.00
2019-03-29T13:08:25.325Z,2792.00
2019-03-29T13:09:25.587Z,2788.00
2019-03-29T13:10:25.320Z,2788.00
2019-03-29T13:11:25.349Z,2788.00
2019-03-29T13:12:25.276Z,2788.00
2019-03-29T13:13:25.331Z,2776.00
2019-03-29T13:14:25.272Z,2768.00
2019-03-29T13:15:25.373Z,2764.00
2019-03-29T13:16:27.544Z,2772.00
2019-03-29T13:17:28.311Z,2760.00
2019-03-29T13:18:25.217Z,2756.00
2019-03-29T13:19:25.264Z,2752.00
2019-03-29T13:20:25.215Z,2740.00
2019-03-29T13:21:25.286Z,2728.00
2019-03-29T13:22:25.173Z,2732.00
2019-03-29T13:23:25.192Z,2736.00
2019-03-29T13:24:25.327Z,2724.00
2019-03-29T13:25:25.253Z,2724.00
2019-03-29T13:26:25.124Z,2724.00
2019-03-29T13:27:25.220Z,2728.00
2019-03-29T13:28:25.115Z,2728.00
2019-03-29T13:29:25.466Z,2716.00
2019-03-29T13:30:25.072Z,2704.00
2019-03-29T13:31:25.180Z,2704.00
2019-03-29T13:32:25.166Z,2704.00
2019-03-29T13:33:25.160Z,2688.00
2019-03-29T13:34:25.053Z,2684.00
2019-03-29T13:35:25.069Z,2684.00
2019-03-29T13:36:25.038Z,2692.00
2019-03-29T13:37:25.082Z,2680.00
2019-03-29T13:38:25.019Z,2676.00
2019-03-29T13:39:25.102Z,2676.00
2019-03-29T13:40:25.008Z,2672.00
2019-03-29T13:41:25.109Z,2672.00
2019-03-29T13:42:24.962Z,2668.00
2019-03-29T13:43:25.025Z,2664.00
2019-03-29T13:44:28.182Z,2660.00
2019-03-29T13:45:27.703Z,2660.00
2019-03-29T13:46:24.932Z,2656.00
2019-03-29T13:47:24.975Z,2648.00
2019-03-29T13:48:24.919Z,2644.00
2019-03-29T13:49:25.523Z,2632.00
2019-03-29T13:50:24.854Z,2624.00
2019-03-29T13:51:25.008Z,2628.00
2019-03-29T13:52:24.835Z,2620.00
2019-03-29T13:53:24.904Z,2612.00
2019-03-29T13:54:24.824Z,2612.00
2019-03-29T13:55:24.907Z,2600.00
2019-03-29T13:56:24.806Z,2592.00
2019-03-29T13:57:24.845Z,2588.00
2019-03-29T13:58:24.765Z,2596.00
2019-03-29T13:59:24.836Z,2584.00
2019-03-29T14:00:24.760Z,2568.00
2019-03-29T14:01:24.912Z,2556.00
2019-03-29T14:02:24.735Z,2564.00
2019-03-29T14:03:24.762Z,2556.00
2019-03-29T14:04:24.710Z,2560.00
2019-03-29T14:05:24.786Z,2548.00
2019-03-29T14:06:24.711Z,2536.00
2019-03-29T14:07:24.817Z,2532.00
2019-03-29T14:08:24.704Z,2520.00
2019-03-29T14:09:24.699Z,2520.00
2019-03-29T14:10:24.655Z,2508.00
2019-03-29T14:11:24.704Z,2504.00
2019-03-29T14:12:24.653Z,2500.00
2019-03-29T14:13:24.726Z,2500.00
2019-03-29T14:14:37.394Z,2500.00
2019-03-29T14:15:25.588Z,2488.00
2019-03-29T14:16:24.642Z,2492.00
2019-03-29T14:17:24.612Z,2496.00
2019-03-29T14:18:24.657Z,2500.00
2019-03-29T14:19:25.945Z,2504.00
2019-03-29T14:20:24.642Z,2496.00
2019-03-29T14:21:24.522Z,2492.00
2019-03-29T14:22:24.612Z,2480.00
2019-03-29T14:23:24.500Z,2476.00
2019-03-29T14:24:24.603Z,2480.00
2019-03-29T14:25:24.507Z,2472.00
2019-03-29T14:26:24.936Z,2456.00
2019-03-29T14:27:24.766Z,2444.00
2019-03-29T14:28:24.530Z,2392.00
2019-03-29T14:29:24.428Z,2436.00
2019-03-29T14:30:24.552Z,2428.00
2019-03-29T14:31:24.420Z,2428.00
2019-03-29T14:32:24.448Z,2428.00
2019-03-29T14:33:24.417Z,2424.00
2019-03-29T14:34:24.463Z,2420.00
2019-03-29T14:35:24.384Z,2424.00
2019-03-29T14:36:24.908Z,2416.00
2019-03-29T14:37:24.406Z,2412.00
2019-03-29T14:38:24.425Z,2416.00
2019-03-29T14:39:24.327Z,2408.00
2019-03-29T14:40:24.400Z,2404.00
2019-03-29T14:41:24.352Z,2404.00
2019-03-29T14:42:24.544Z,2376.00
2019-03-29T14:43:24.315Z,2372.00
2019-03-29T14:44:24.328Z,2364.00
2019-03-29T14:45:24.265Z,2356.00
2019-03-29T14:46:24.348Z,2356.00
2019-03-29T14:47:38.142Z,2348.00
2019-03-29T14:48:24.298Z,2344.00
2019-03-29T14:49:24.261Z,2340.00
2019-03-29T14:50:24.258Z,2332.00
2019-03-29T14:51:24.272Z,2316.00
2019-03-29T14:52:24.184Z,2312.00
2019-03-29T14:53:24.353Z,2300.00
2019-03-29T14:54:24.160Z,2284.00
2019-03-29T14:55:24.201Z,2280.00
2019-03-29T14:56:24.140Z,2280.00
2019-03-29T14:57:24.252Z,2288.00
2019-03-29T14:58:24.247Z,2276.00
2019-03-29T15:00:26.207Z,2260.00
2019-03-29T15:01:26.183Z,2252.00
2019-03-29T15:02:24.073Z,2240.00
2019-03-29T15:03:24.611Z,2236.00
2019-03-29T15:04:25.181Z,2224.00
2019-03-29T15:07:48.358Z,2192.00
2019-03-29T15:08:24.435Z,2192.00
2019-03-29T15:09:25.058Z,2180.00
2019-03-29T15:10:24.377Z,2176.00
2019-03-29T15:11:45.713Z,2160.00
2019-03-29T15:12:24.339Z,2156.00
2019-03-29T15:13:24.047Z,2152.00
2019-03-29T15:14:25.090Z,2148.00
2019-03-29T15:16:02.368Z,2132.00
2019-03-29T15:16:25.288Z,2124.00
2019-03-29T15:17:25.156Z,2112.00
2019-03-29T15:18:24.643Z,2096.00
2019-03-29T15:19:26.660Z,2088.00
2019-03-29T15:20:24.595Z,2064.00
2019-03-29T15:21:45.667Z,2064.00
2019-03-29T15:22:33.073Z,2056.00
2019-03-29T15:23:25.441Z,2044.00
2019-03-29T15:24:35.717Z,2044.00
2019-03-29T15:25:23.832Z,2040.00
2019-03-29T15:26:23.837Z,2028.00
2019-03-29T15:27:23.806Z,2020.00
2019-03-29T15:28:23.913Z,2020.00
2019-03-29T15:29:23.773Z,2016.00
2019-03-29T15:30:23.854Z,2004.00
2019-03-29T15:31:23.760Z,1996.00
2019-03-29T15:32:23.840Z,1992.00
2019-03-29T15:33:23.735Z,1972.00
2019-03-29T15:34:23.780Z,1972.00
2019-03-29T15:35:23.710Z,1968.00
2019-03-29T15:36:23.760Z,1964.00
2019-03-29T15:37:23.684Z,1952.00
2019-03-29T15:38:23.775Z,1944.00
2019-03-29T15:39:23.715Z,1932.00
2019-03-29T15:40:23.726Z,1928.00
2019-03-29T15:41:23.643Z,1924.00
2019-03-29T15:42:23.702Z,1916.00
2019-03-29T15:43:23.627Z,1908.00
2019-03-29T15:44:23.752Z,1904.00
2019-03-29T15:45:23.614Z,1892.00
2019-03-29T15:46:23.734Z,1888.00
2019-03-29T15:47:23.598Z,1884.00
2019-03-29T15:48:23.661Z,1880.00
2019-03-29T15:49:23.586Z,1868.00
2019-03-29T15:50:23.698Z,1860.00
2019-03-29T15:51:23.535Z,1844.00
2019-03-29T15:52:23.572Z,1832.00
2019-03-29T15:53:23.512Z,1828.00
2019-03-29T15:54:23.596Z,1816.00
2019-03-29T15:55:23.530Z,1804.00
2019-03-29T15:56:23.610Z,1792.00
2019-03-29T15:57:23.461Z,1788.00
2019-03-29T15:58:23.512Z,1776.00
2019-03-29T15:59:23.450Z,1768.00
2019-03-29T16:00:23.557Z,1764.00
2019-03-29T16:01:23.429Z,1748.00
2019-03-29T16:02:23.471Z,1744.00
2019-03-29T16:03:23.405Z,1740.00
2019-03-29T16:04:23.467Z,1732.00
2019-03-29T16:05:23.410Z,1732.00
2019-03-29T16:06:23.547Z,1712.00
2019-03-29T16:07:23.372Z,1724.00
2019-03-29T16:08:23.380Z,1728.00
2019-03-29T16:09:23.330Z,1704.00
2019-03-29T16:10:23.418Z,1692.00
2019-03-29T16:11:23.339Z,1692.00
2019-03-29T16:12:23.423Z,1684.00
2019-03-29T16:13:23.287Z,1684.00
2019-03-29T16:14:23.315Z,1696.00
2019-03-29T16:15:33.864Z,1700.00
2019-03-29T16:16:24.289Z,1696.00
2019-03-29T16:17:23.374Z,1700.00
2019-03-29T16:18:23.236Z,1712.00
2019-03-29T16:19:23.260Z,1720.00
2019-03-29T16:20:23.208Z,1720.00
2019-03-29T16:21:23.294Z,1708.00
2019-03-29T16:22:23.206Z,1708.00
2019-03-29T16:23:23.296Z,1684.00
2019-03-29T16:24:23.196Z,1668.00
2019-03-29T16:25:23.183Z,1628.00
2019-03-29T16:26:23.165Z,1632.00
2019-03-29T16:27:25.163Z,1628.00
2019-03-29T16:28:23.133Z,1624.00
2019-03-29T16:29:23.212Z,1644.00
2019-03-29T16:30:23.114Z,1636.00
2019-03-29T16:31:23.160Z,1616.00
2019-03-29T16:32:23.072Z,1572.00
2019-03-29T16:33:23.140Z,1524.00
2019-03-29T16:34:23.060Z,1516.00
2019-03-29T16:35:23.202Z,1604.00
2019-03-29T16:36:23.061Z,1636.00
2019-03-29T16:37:23.067Z,1632.00
2019-03-29T16:38:22.995Z,1656.00
2019-03-29T16:39:23.084Z,1644.00
2019-03-29T16:40:22.998Z,1680.00
2019-03-29T16:41:23.024Z,1632.00
2019-03-29T16:42:22.962Z,1644.00
2019-03-29T16:43:24.068Z,1604.00
2019-03-29T16:44:23.378Z,1556.00
2019-03-29T16:45:23.196Z,1540.00
2019-03-29T16:46:22.925Z,1588.00
2019-03-29T16:47:23.031Z,1608.00
2019-03-29T16:48:22.919Z,1712.00
2019-03-29T16:49:22.945Z,1832.00
2019-03-29T16:50:22.888Z,1728.00
2019-03-29T16:51:22.957Z,1652.00
2019-03-29T16:52:22.922Z,1624.00
2019-03-29T16:53:22.864Z,1644.00
2019-03-29T16:54:22.834Z,1744.00
2019-03-29T16:55:22.932Z,1908.00
2019-03-29T16:56:22.835Z,2256.00
2019-03-29T16:57:22.926Z,2420.00
2019-03-29T16:58:22.792Z,2524.00
2019-03-29T16:59:22.810Z,2668.00
2019-03-29T17:00:22.761Z,2736.00
2019-03-29T17:01:22.819Z,2692.00
2019-03-29T17:02:22.736Z,2420.00
2019-03-29T17:03:22.990Z,2268.00
2019-03-29T17:04:22.953Z,2288.00
2019-03-29T17:05:22.751Z,2304.00
2019-03-29T17:06:22.704Z,2276.00
2019-03-29T17:07:22.761Z,2240.00
2019-03-29T17:08:22.724Z,2084.00
2019-03-29T17:09:22.781Z,1848.00
2019-03-29T17:10:22.657Z,1556.00
2019-03-29T17:11:22.722Z,1448.00
2019-03-29T17:12:22.635Z,1384.00
2019-03-29T17:13:22.752Z,1352.00
2019-03-29T17:14:22.606Z,1304.00
2019-03-29T17:15:22.716Z,1188.00
2019-03-29T17:16:30.327Z,1092.00
2019-03-29T17:17:23.582Z,1036.00
2019-03-29T17:18:29.219Z,1040.00
2019-03-29T17:19:23.565Z,1000.00
2019-03-29T17:20:22.656Z,1048.00
2019-03-29T17:21:22.537Z,1048.00
2019-03-29T17:22:22.553Z,996.00
2019-03-29T17:23:22.533Z,960.00
2019-03-29T17:24:22.577Z,900.00
2019-03-29T17:25:22.499Z,860.00
2019-03-29T17:26:22.587Z,804.00
2019-03-29T17:27:22.487Z,716.00
2019-03-29T17:28:22.700Z,624.00
2019-03-29T17:29:22.469Z,560.00
2019-03-29T17:30:22.513Z,536.00
2019-03-29T17:31:22.426Z,516.00
2019-03-29T17:32:22.537Z,496.00
2019-03-29T17:33:22.647Z,480.00
2019-03-29T17:34:22.595Z,456.00
2019-03-29T17:35:22.384Z,436.00
2019-03-29T17:36:22.453Z,416.00
2019-03-29T17:37:22.357Z,404.00
2019-03-29T17:38:22.473Z,384.00
2019-03-29T17:39:22.422Z,364.00
2019-03-29T17:40:22.380Z,348.00
2019-03-29T17:41:22.334Z,324.00
2019-03-29T17:42:22.395Z,312.00
2019-03-29T17:43:22.290Z,292.00
2019-03-29T17:44:22.353Z,276.00
2019-03-29T17:45:22.270Z,256.00
2019-03-29T17:46:22.319Z,240.00
2019-03-29T17:47:22.255Z,228.00
2019-03-29T17:48:22.332Z,212.00
2019-03-29T17:49:22.267Z,200.00
2019-03-29T17:50:25.225Z,184.00
2019-03-29T17:51:22.233Z,172.00
2019-03-29T17:52:22.264Z,156.00
2019-03-29T17:53:22.178Z,148.00
2019-03-29T17:54:22.271Z,132.00
2019-03-29T17:55:22.179Z,124.00
2019-03-29T17:56:22.180Z,112.00
2019-03-29T17:57:22.136Z,100.00
2019-03-29T17:58:22.205Z,92.00
2019-03-29T17:59:22.136Z,88.00
2019-03-29T18:00:22.243Z,80.00
2019-03-29T18:01:22.100Z,72.00
2019-03-29T18:02:22.133Z,64.00
2019-03-29T18:03:22.068Z,56.00
2019-03-29T18:04:22.169Z,48.00
2019-03-29T18:05:22.085Z,44.00
2019-03-29T18:06:22.158Z,40.00
2019-03-29T18:07:22.036Z,36.00
2019-03-29T18:08:22.083Z,32.00
2019-03-29T18:09:22.027Z,28.00
2019-03-29T18:10:22.111Z,24.00
2019-03-29T18:11:21.978Z,20.00
2019-03-29T18:12:22.122Z,16.00
2019-03-29T18:13:21.954Z,16.00
2019-03-29T18:14:22.003Z,16.00
2019-03-29T18:15:21.965Z,8.00
2019-03-29T18:16:30.387Z,12.00
2019-03-29T18:17:22.917Z,8.00
2019-03-29T18:18:22.026Z,4.00
2019-03-29T18:19:21.906Z,8.00
2019-03-29T18:20:21.975Z,8.00
2019-03-29T18:21:21.914Z,4.00
2019-03-29T18:22:21.952Z,4.00
2019-03-29T18:23:24.803Z,4.00
2019-03-29T18:24:21.967Z,0.00
2019-03-29T18:25:21.873Z,4.00
2019-03-29T18:26:21.876Z,0.00
2019-03-29T18:27:21.806Z,0.00
2019-03-29T18:28:21.902Z,4.00
2019-03-29T18:29:21.782Z,0.00
2019-03-29T18:30:21.903Z,0.00
2019-03-29T18:31:21.778Z,0.00
2019-03-29T18:32:21.858Z,0.00
2019-03-29T18:33:21.740Z,0.00
2019-03-29T18:34:22.048Z,0.00
2019-03-29T18:35:21.714Z,0.00
2019-03-29T18:36:21.779Z,0.00
2019-03-29T18:37:21.686Z,0.00
2019-03-29T18:38:21.758Z,0.00
2019-03-29T18:39:21.672Z,0.00
2019-03-29T18:40:21.778Z,0.00
2019-03-29T18:41:21.691Z,0.00
2019-03-29T18:42:21.706Z,0.00
2019-03-29T18:43:21.637Z,0.00
2019-03-29T18:44:21.690Z,0.00
2019-03-29T18:45:21.598Z,0.00
2019-03-29T18:46:21.747Z,0.00
2019-03-29T18:47:21.589Z,0.00
2019-03-29T18:48:21.618Z,0.00
2019-03-29T18:49:21.710Z,0.00